^^
Your Local Weather - Clay, NY Station Historical Data
Daily Summary for November 2, 2017 Units:  English    Metric   Both
« Previous Day
Next Day »
Daily Weekly Monthly Yearly Custom
  High: Low: Average:
Temperature: 64.9 °F 42.5 °F 56.4 °F
Dew Point: 54.9 °F 40.9 °F 49.8 °F
Humidity: 95% 59% 80%
Wind Speed: 6.0mph 0.0mph 3.1mph
Wind Gust: 16.0mph - -
Wind- - South
Pressure: 30.16 in 29.95 in -
Precipitation: 0.69 in    
Historical Graphs
 
 
Tabular Data for November 2, 2017
Time Temperature Dew Point Pressure Wind Wind Speed Wind Gust Humidity Rainfall Rate (Hourly) solar
00:02 42.5 °F 40.9 °F 30.16 in ENE 2.0 mph 4.0 mph 94% 0.12 in 0 W/m2
00:08 42.6 °F 41.0 °F 30.16 in ENE 2.0 mph 4.0 mph 94% 0.06 in 0 W/m2
00:14 42.6 °F 41.0 °F 30.15 in ENE 2.0 mph 3.0 mph 94% 0.04 in 0 W/m2
00:20 42.7 °F 41.1 °F 30.15 in ENE 2.0 mph 4.0 mph 94% 0.04 in 0 W/m2
00:26 42.8 °F 41.2 °F 30.14 in ENE 1.0 mph 4.0 mph 94% 0.04 in 0 W/m2
00:32 42.9 °F 41.3 °F 30.14 in East 1.0 mph 3.0 mph 94% 0.04 in 0 W/m2
00:38 43.0 °F 41.4 °F 30.14 in East 1.0 mph 3.0 mph 94% 0.04 in 0 W/m2
00:44 43.0 °F 41.4 °F 30.14 in East 1.0 mph 5.0 mph 94% 0.04 in 0 W/m2
00:50 43.1 °F 41.5 °F 30.14 in East 1.0 mph 2.0 mph 94% 0.00 in 0 W/m2
00:56 43.3 °F 41.7 °F 30.14 in East 1.0 mph 2.0 mph 94% 0.00 in 0 W/m2
01:02 43.3 °F 41.7 °F 30.14 in East 1.0 mph 1.0 mph 94% 0.00 in 0 W/m2
01:08 43.4 °F 41.8 °F 30.14 in East 1.0 mph 2.0 mph 94% 0.00 in 0 W/m2
01:14 43.5 °F 41.9 °F 30.13 in ENE 1.0 mph 3.0 mph 94% 0.00 in 0 W/m2
01:20 43.7 °F 42.1 °F 30.13 in ENE 2.0 mph 2.0 mph 94% 0.00 in 0 W/m2
01:26 43.8 °F 42.2 °F 30.13 in ENE 1.0 mph 2.0 mph 94% 0.00 in 0 W/m2
01:32 43.8 °F 42.2 °F 30.13 in ENE 1.0 mph 2.0 mph 94% 0.00 in 0 W/m2
01:38 43.9 °F 42.3 °F 30.12 in ENE 2.0 mph 2.0 mph 94% 0.00 in 0 W/m2
01:44 44.0 °F 42.4 °F 30.12 in ENE 1.0 mph 1.0 mph 94% 0.00 in 0 W/m2
01:50 44.0 °F 42.4 °F 30.11 in ENE 2.0 mph 2.0 mph 94% 0.04 in 0 W/m2
01:56 44.1 °F 42.5 °F 30.11 in ENE 1.0 mph 4.0 mph 94% 0.04 in 0 W/m2
02:02 44.2 °F 42.6 °F 30.11 in ENE 2.0 mph 4.0 mph 94% 0.10 in 0 W/m2
02:08 44.2 °F 42.6 °F 30.11 in ENE 1.0 mph 4.0 mph 94% 0.09 in 0 W/m2
02:14 44.2 °F 42.6 °F 30.11 in ENE 1.0 mph 2.0 mph 94% 0.06 in 0 W/m2
02:20 44.3 °F 42.7 °F 30.11 in ENE 1.0 mph 1.0 mph 94% 0.10 in 0 W/m2
02:26 44.3 °F 42.7 °F 30.11 in ENE 1.0 mph 2.0 mph 94% 0.08 in 0 W/m2
02:32 44.4 °F 42.8 °F 30.11 in ENE 1.0 mph 2.0 mph 94% 0.08 in 0 W/m2
02:38 44.5 °F 42.9 °F 30.11 in East 1.0 mph 3.0 mph 94% 0.08 in 0 W/m2
02:44 44.5 °F 42.9 °F 30.11 in East 1.0 mph 2.0 mph 94% 0.06 in 0 W/m2
02:50 44.5 °F 42.9 °F 30.11 in East 1.0 mph 2.0 mph 94% 0.06 in 0 W/m2
02:56 44.6 °F 43.0 °F 30.10 in East 1.0 mph 2.0 mph 94% 0.07 in 0 W/m2
03:02 44.6 °F 43.0 °F 30.10 in Calm   2.0 mph 94% 0.05 in 0 W/m2
03:08 44.7 °F 43.1 °F 30.09 in Calm   2.0 mph 94% 0.00 in 0 W/m2
03:14 44.7 °F 43.1 °F 30.09 in East 1.0 mph 1.0 mph 94% 0.00 in 0 W/m2
03:20 44.8 °F 43.2 °F 30.09 in East 1.0 mph 1.0 mph 94% 0.00 in 0 W/m2
03:26 44.8 °F 43.2 °F 30.09 in East 1.0 mph 1.0 mph 94% 0.05 in 0 W/m2
03:32 44.8 °F 43.2 °F 30.09 in East 1.0 mph 1.0 mph 94% 0.05 in 0 W/m2
03:38 44.9 °F 43.3 °F 30.09 in Calm   1.0 mph 94% 0.06 in 0 W/m2
03:44 45.0 °F 43.4 °F 30.09 in Calm   2.0 mph 94% 0.10 in 0 W/m2
03:50 45.1 °F 43.5 °F 30.09 in Calm     94% 0.08 in 0 W/m2
03:56 45.1 °F 43.5 °F 30.09 in Calm     94% 0.11 in 0 W/m2
04:02 45.2 °F 43.6 °F 30.08 in Calm     94% 0.16 in 0 W/m2
04:08 45.4 °F 43.8 °F 30.08 in Calm     94% 0.11 in 0 W/m2
04:14 45.4 °F 43.8 °F 30.08 in Calm   2.0 mph 94% 0.11 in 0 W/m2
04:20 45.5 °F 43.9 °F 30.08 in Calm     94% 0.11 in 0 W/m2
04:26 45.7 °F 44.4 °F 30.08 in Calm   2.0 mph 95% 0.08 in 0 W/m2
04:32 46.0 °F 44.4 °F 30.07 in Calm   1.0 mph 94% 0.10 in 0 W/m2
04:38 46.1 °F 44.5 °F 30.07 in Calm   1.0 mph 94% 0.09 in 0 W/m2
04:44 46.3 °F 44.9 °F 30.07 in Calm   1.0 mph 95% 0.07 in 0 W/m2
04:50 46.5 °F 45.1 °F 30.06 in SE 1.0 mph 1.0 mph 95% 0.06 in 0 W/m2
04:56 46.4 °F 45.0 °F 30.06 in Calm   1.0 mph 95% 0.05 in 0 W/m2
05:02 46.5 °F 45.1 °F 30.07 in Calm     95% 0.05 in 0 W/m2
05:08 46.5 °F 45.1 °F 30.07 in Calm     95% 0.05 in 0 W/m2
05:14 46.4 °F 45.0 °F 30.08 in Calm     95% 0.09 in 0 W/m2
05:20 46.5 °F 45.1 °F 30.07 in Calm     95% 0.11 in 0 W/m2
05:26 46.7 °F 45.3 °F 30.08 in Calm   1.0 mph 95% 0.14 in 0 W/m2
05:32 47.1 °F 45.7 °F 30.08 in Calm   1.0 mph 95% 0.16 in 0 W/m2
05:38 47.7 °F 46.3 °F 30.06 in Calm   1.0 mph 95% 0.13 in 0 W/m2
05:44 47.9 °F 46.5 °F 30.07 in Calm     95% 0.13 in 0 W/m2
05:50 48.4 °F 47.0 °F 30.06 in Calm     95% 0.07 in 0 W/m2
05:56 48.1 °F 46.7 °F 30.06 in Calm   3.0 mph 95% 0.05 in 0 W/m2
06:02 49.7 °F 48.3 °F 30.06 in SSE 2.0 mph 2.0 mph 95% 0.05 in 0 W/m2
06:08 50.5 °F 49.1 °F 30.06 in SSE 2.0 mph 2.0 mph 95% 0.05 in 0 W/m2
06:14 50.7 °F 49.3 °F 30.06 in SSE 2.0 mph 4.0 mph 95% 0.05 in 0 W/m2
06:20 51.2 °F 49.8 °F 30.06 in SSE 2.0 mph 4.0 mph 95% 0.04 in 0 W/m2
06:26 51.5 °F 50.1 °F 30.06 in SSE 3.0 mph 4.0 mph 95% 0.10 in 0 W/m2
06:32 51.7 °F 50.3 °F 30.05 in SSE 3.0 mph 3.0 mph 95% 0.09 in 0 W/m2
06:38 51.8 °F 50.4 °F 30.05 in SE 3.0 mph 3.0 mph 95% 0.05 in 0 W/m2
06:44 51.9 °F 50.5 °F 30.05 in SSE 2.0 mph 5.0 mph 95% 0.05 in 0 W/m2
06:50 52.0 °F 50.6 °F 30.05 in SSE 3.0 mph 3.0 mph 95% 0.05 in 0 W/m2
06:56 52.1 °F 50.7 °F 30.04 in South 2.0 mph 3.0 mph 95% 0.05 in 0 W/m2
07:02 52.2 °F 50.8 °F 30.05 in SE 2.0 mph 2.0 mph 95% 0.05 in 0 W/m2
07:08 52.4 °F 51.0 °F 30.05 in SE 3.0 mph 4.0 mph 95% 0.00 in 0 W/m2
07:14 52.5 °F 51.1 °F 30.04 in SSW 5.0 mph 5.0 mph 95% 0.14 in 0 W/m2
07:20 52.7 °F 51.0 °F 30.04 in SSE 5.0 mph 5.0 mph 94% 0.09 in 0 W/m2
07:26 52.7 °F 51.0 °F 30.04 in SSE 4.0 mph 5.0 mph 94% 0.08 in 0 W/m2
07:32 52.8 °F 51.1 °F 30.04 in SSW 4.0 mph 5.0 mph 94% 0.10 in 0 W/m2
07:34 52.9 °F 51.2 °F 30.05 in South 4.0 mph 7.0 mph 94% 0.11 in 0 W/m2
07:40 52.9 °F 50.9 °F 30.05 in SSW 4.0 mph 4.0 mph 93% 0.15 in 0 W/m2
07:46 53.0 °F 51.0 °F 30.05 in South 4.0 mph 5.0 mph 93% 0.06 in 0 W/m2
07:52 53.4 °F 51.1 °F 30.05 in SSW 5.0 mph 5.0 mph 92% 0.04 in 0 W/m2
07:58 53.5 °F 50.9 °F 30.05 in SE 4.0 mph 6.0 mph 91% 0.00 in 0 W/m2
08:04 53.5 °F 50.9 °F 30.06 in SSW 4.0 mph 6.0 mph 91% 0.00 in 0 W/m2
08:10 53.7 °F 51.1 °F 30.07 in SSW 4.0 mph 4.0 mph 91% 0.00 in 0 W/m2
08:16 53.9 °F 51.0 °F 30.08 in South 4.0 mph 7.0 mph 90% 0.67 in 0 W/m2
08:22 53.8 °F 50.9 °F 30.07 in SW 4.0 mph 11.0 mph 90% 0.31 in 5 W/m2
08:28 53.9 °F 51.0 °F 30.07 in SSW 6.0 mph 11.0 mph 90% 0.15 in 5 W/m2
08:34 54.0 °F 51.1 °F 30.07 in SE 6.0 mph 8.0 mph 90% 0.09 in 7 W/m2
08:40 54.0 °F 51.1 °F 30.08 in SW 5.0 mph 8.0 mph 90% 0.05 in 14 W/m2
08:46 54.1 °F 51.2 °F 30.08 in SW 5.0 mph 8.0 mph 90% 0.04 in 11 W/m2
08:52 54.3 °F 51.4 °F 30.08 in SSW 5.0 mph 6.0 mph 90% 0.04 in 9 W/m2
08:58 54.4 °F 51.2 °F 30.08 in South 6.0 mph 7.0 mph 89% 0.04 in 12 W/m2
09:04 54.3 °F 51.1 °F 30.09 in SSW 6.0 mph 11.0 mph 89% 0.00 in 16 W/m2
09:10 54.1 °F 51.2 °F 30.09 in South 5.0 mph 5.0 mph 90% 0.00 in 14 W/m2
09:16 54.1 °F 51.2 °F 30.09 in South 5.0 mph 6.0 mph 90% 0.11 in 16 W/m2
09:22 54.0 °F 51.1 °F 30.09 in South 4.0 mph 10.0 mph 90% 0.08 in 28 W/m2
09:28 54.1 °F 51.2 °F 30.09 in SW 5.0 mph 10.0 mph 90% 0.04 in 23 W/m2
09:34 54.1 °F 51.2 °F 30.09 in South 6.0 mph 8.0 mph 90% 0.04 in 30 W/m2
09:40 54.2 °F 51.3 °F 30.09 in SSE 6.0 mph 12.0 mph 90% 0.09 in 33 W/m2
09:46 54.1 °F 51.2 °F 30.09 in South 5.0 mph 12.0 mph 90% 0.08 in 39 W/m2
09:52 54.2 °F 51.3 °F 30.09 in SW 4.0 mph 7.0 mph 90% 0.04 in 114 W/m2
09:58 54.3 °F 51.7 °F 30.09 in South 4.0 mph 9.0 mph 91% 0.00 in 76 W/m2
10:04 54.4 °F 51.8 °F 30.09 in South 5.0 mph 7.0 mph 91% 0.00 in 40 W/m2
10:10 54.6 °F 51.7 °F 30.08 in South 5.0 mph 6.0 mph 90% 0.00 in 77 W/m2
10:16 55.0 °F 51.8 °F 30.08 in SW 6.0 mph 6.0 mph 89% 0.00 in 83 W/m2
10:22 55.1 °F 51.9 °F 30.08 in SSW 6.0 mph 9.0 mph 89% 0.00 in 127 W/m2
10:28 55.4 °F 51.9 °F 30.08 in South 5.0 mph 10.0 mph 88% 0.00 in 167 W/m2
10:34 55.7 °F 52.2 °F 30.08 in SSE 5.0 mph 7.0 mph 88% 0.00 in 176 W/m2
10:40 55.9 °F 52.1 °F 30.08 in SSW 4.0 mph 5.0 mph 87% 0.00 in 84 W/m2
10:46 55.9 °F 52.1 °F 30.08 in SSE 3.0 mph 5.0 mph 87% 0.00 in 42 W/m2
10:52 55.7 °F 51.9 °F 30.08 in South 4.0 mph 5.0 mph 87% 0.00 in 88 W/m2
10:58 55.7 °F 51.9 °F 30.08 in SSE 3.0 mph 5.0 mph 87% 0.00 in 93 W/m2
11:04 55.7 °F 52.2 °F 30.08 in SSE 2.0 mph 3.0 mph 88% 0.00 in 95 W/m2
11:10 55.9 °F 52.1 °F 30.08 in SSW 1.0 mph 1.0 mph 87% 0.00 in 109 W/m2
11:16 56.2 °F 52.4 °F 30.08 in SW 1.0 mph 3.0 mph 87% 0.00 in 121 W/m2
11:22 56.5 °F 52.4 °F 30.09 in SSW 1.0 mph 1.0 mph 86% 0.00 in 139 W/m2
11:28 57.2 °F 53.0 °F 30.08 in South 1.0 mph 2.0 mph 86% 0.00 in 243 W/m2
11:34 58.3 °F 53.8 °F 30.08 in SSW 2.0 mph 4.0 mph 85% 0.00 in 497 W/m2
11:40 60.1 °F 54.9 °F 30.08 in SSW 2.0 mph 4.0 mph 83% 0.00 in 381 W/m2
11:46 60.9 °F 54.7 °F 30.08 in SW 2.0 mph 5.0 mph 80% 0.00 in 508 W/m2
11:52 61.3 °F 54.0 °F 30.08 in SW 4.0 mph 4.0 mph 77% 0.00 in 262 W/m2
11:56 61.2 °F 53.9 °F 30.08 in South 4.0 mph 7.0 mph 77% 0.00 in 278 W/m2
12:02 61.8 °F 54.2 °F 30.07 in WSW 4.0 mph 6.0 mph 76% 0.00 in 244 W/m2
12:08 61.5 °F 53.9 °F 30.07 in SSW 4.0 mph 7.0 mph 76% 0.00 in 255 W/m2
12:16 61.2 °F 53.2 °F 30.07 in SSW 4.0 mph 7.0 mph 75% 0.00 in 135 W/m2
12:22 61.0 °F 53.0 °F 30.07 in SSE 5.0 mph 5.0 mph 75% 0.00 in 162 W/m2
12:28 60.9 °F 52.9 °F 30.07 in SSW 5.0 mph 6.0 mph 75% 0.00 in 105 W/m2
12:34 60.9 °F 52.9 °F 30.06 in South 5.0 mph 6.0 mph 75% 0.00 in 185 W/m2
12:40 61.0 °F 52.7 °F 30.06 in SW 5.0 mph 8.0 mph 74% 0.00 in 171 W/m2
12:46 61.0 °F 53.0 °F 30.06 in SSW 4.0 mph 8.0 mph 75% 0.00 in 148 W/m2
12:52 61.3 °F 53.3 °F 30.07 in SW 4.0 mph 4.0 mph 75% 0.00 in 336 W/m2
12:58 62.1 °F 53.7 °F 30.06 in West 4.0 mph 8.0 mph 74% 0.00 in 278 W/m2
13:04 62.4 °F 54.0 °F 30.06 in SSE 4.0 mph 6.0 mph 74% 0.00 in 322 W/m2
13:10 63.1 °F 53.9 °F 30.06 in SW 4.0 mph 4.0 mph 72% 0.00 in 246 W/m2
13:16 63.1 °F 53.5 °F 30.06 in WNW 5.0 mph 6.0 mph 71% 0.00 in 158 W/m2
13:22 62.6 °F 53.4 °F 30.06 in South 4.0 mph 5.0 mph 72% 0.00 in 200 W/m2
13:28 62.5 °F 53.3 °F 30.05 in SW 4.0 mph 8.0 mph 72% 0.00 in 128 W/m2
13:34 62.4 °F 53.3 °F 30.05 in SW 4.0 mph 5.0 mph 72% 0.00 in 135 W/m2
13:40 62.5 °F 53.7 °F 30.05 in SSE 3.0 mph 3.0 mph 73% 0.00 in 366 W/m2
13:46 63.7 °F 54.1 °F 30.05 in SSW 4.0 mph 6.0 mph 71% 0.00 in 587 W/m2
13:52 64.5 °F 54.1 °F 30.04 in South 5.0 mph 8.0 mph 69% 0.00 in 519 W/m2
13:58 64.6 °F 54.2 °F 30.04 in SSW 6.0 mph 11.0 mph 69% 0.00 in 584 W/m2
14:04 64.6 °F 53.8 °F 30.04 in SSE 6.0 mph 6.0 mph 68% 0.00 in 229 W/m2
14:10 64.0 °F 53.2 °F 30.04 in South 6.0 mph 6.0 mph 68% 0.00 in 202 W/m2
14:16 63.7 °F 53.3 °F 30.03 in SSW 6.0 mph 8.0 mph 69% 0.00 in 167 W/m2
14:22 63.6 °F 53.2 °F 30.03 in SSW 5.0 mph 6.0 mph 69% 0.00 in 130 W/m2
14:28 63.5 °F 53.5 °F 30.03 in SSW 5.0 mph 6.0 mph 70% 0.00 in 149 W/m2
14:34 63.5 °F 53.5 °F 30.03 in SSE 4.0 mph 4.0 mph 70% 0.00 in 174 W/m2
14:40 63.8 °F 53.4 °F 30.02 in SSW 4.0 mph 4.0 mph 69% 0.00 in 181 W/m2
14:46 63.8 °F 53.4 °F 30.02 in SSE 4.0 mph 8.0 mph 69% 0.00 in 183 W/m2
14:52 63.9 °F 53.5 °F 30.02 in SSW 5.0 mph 5.0 mph 69% 0.00 in 253 W/m2
14:58 64.1 °F 53.3 °F 30.02 in SSE 5.0 mph 8.0 mph 68% 0.00 in 213 W/m2
15:04 64.0 °F 53.2 °F 30.02 in South 5.0 mph 5.0 mph 68% 0.00 in 227 W/m2
15:10 64.3 °F 53.9 °F 30.02 in SW 4.0 mph 4.0 mph 69% 0.00 in 230 W/m2
15:16 64.4 °F 53.6 °F 30.02 in SSE 4.0 mph 6.0 mph 68% 0.00 in 192 W/m2
15:22 64.3 °F 53.1 °F 30.02 in SSE 6.0 mph 8.0 mph 67% 0.00 in 213 W/m2
15:28 64.5 °F 53.3 °F 30.02 in South 5.0 mph 8.0 mph 67% 0.00 in 186 W/m2
15:34 64.5 °F 53.3 °F 30.02 in SSW 3.0 mph 3.0 mph 67% 0.00 in 169 W/m2
15:40 64.5 °F 53.3 °F 30.02 in SSE 3.0 mph 4.0 mph 67% 0.00 in 151 W/m2
15:46 64.4 °F 53.2 °F 30.02 in SSE 5.0 mph 7.0 mph 67% 0.00 in 141 W/m2
15:52 64.4 °F 53.2 °F 30.02 in SSW 4.0 mph 4.0 mph 67% 0.00 in 128 W/m2
15:58 64.4 °F 53.6 °F 30.02 in SSE 3.0 mph 4.0 mph 68% 0.00 in 109 W/m2
16:04 64.4 °F 53.6 °F 30.02 in South 2.0 mph 4.0 mph 68% 0.00 in 105 W/m2
16:10 64.3 °F 53.5 °F 30.02 in SSE 3.0 mph 3.0 mph 68% 0.00 in 104 W/m2
16:16 64.2 °F 53.8 °F 30.02 in South 2.0 mph 4.0 mph 69% 0.00 in 83 W/m2
16:22 64.2 °F 53.8 °F 30.02 in South 2.0 mph 2.0 mph 69% 0.00 in 65 W/m2
16:28 63.9 °F 53.5 °F 30.02 in South 1.0 mph 2.0 mph 69% 0.00 in 63 W/m2
16:34 63.6 °F 53.2 °F 30.02 in SSE 2.0 mph 4.0 mph 69% 0.00 in 54 W/m2
16:40 63.4 °F 53.4 °F 30.02 in South 3.0 mph 3.0 mph 70% 0.00 in 54 W/m2
16:46 63.3 °F 53.3 °F 30.02 in SSE 3.0 mph 3.0 mph 70% 0.00 in 44 W/m2
16:52 63.2 °F 53.3 °F 30.02 in South 3.0 mph 3.0 mph 70% 0.00 in 37 W/m2
16:58 63.1 °F 53.2 °F 30.02 in SE 3.0 mph 5.0 mph 70% 0.00 in 23 W/m2
17:04 62.9 °F 53.0 °F 30.02 in SE 2.0 mph 3.0 mph 70% 0.00 in 18 W/m2
17:10 62.8 °F 52.9 °F 30.02 in SSE 2.0 mph 5.0 mph 70% 0.00 in 16 W/m2
17:16 62.6 °F 53.1 °F 30.03 in SSE 2.0 mph 5.0 mph 71% 0.00 in 14 W/m2
17:22 62.5 °F 53.0 °F 30.02 in SSE 2.0 mph 3.0 mph 71% 0.00 in 11 W/m2
17:28 62.4 °F 52.9 °F 30.03 in SE 2.0 mph 3.0 mph 71% 0.00 in 9 W/m2
17:32 62.3 °F 52.8 °F 30.03 in SE 2.0 mph 2.0 mph 71% 0.00 in 7 W/m2
17:40 62.2 °F 53.1 °F 30.02 in SSE 1.0 mph 3.0 mph 72% 0.00 in 5 W/m2
17:46 62.1 °F 53.0 °F 30.02 in SSE 1.0 mph 3.0 mph 72% 0.00 in 0 W/m2
17:52 62.1 °F 53.0 °F 30.02 in South 2.0 mph 3.0 mph 72% 0.00 in 0 W/m2
17:58 62.2 °F 52.7 °F 30.02 in South 2.0 mph 3.0 mph 71% 0.00 in 0 W/m2
18:04 62.3 °F 52.8 °F 30.02 in SSE 2.0 mph 2.0 mph 71% 0.00 in 0 W/m2
18:10 62.4 °F 52.5 °F 30.02 in South 3.0 mph 3.0 mph 70% 0.00 in 0 W/m2
18:16 62.4 °F 52.5 °F 30.02 in South 3.0 mph 3.0 mph 70% 0.00 in 0 W/m2
18:22 62.1 °F 52.2 °F 30.02 in South 2.0 mph 2.0 mph 70% 0.00 in 0 W/m2
18:28 62.3 °F 52.4 °F 30.02 in SSE 2.0 mph 4.0 mph 70% 0.00 in 0 W/m2
18:34 62.3 °F 52.0 °F 30.02 in South 2.0 mph 4.0 mph 69% 0.00 in 0 W/m2
18:40 62.3 °F 52.0 °F 30.02 in SSW 3.0 mph 3.0 mph 69% 0.00 in 0 W/m2
18:46 62.5 °F 51.8 °F 30.02 in South 3.0 mph 7.0 mph 68% 0.00 in 0 W/m2
18:52 62.6 °F 51.5 °F 30.02 in SSW 4.0 mph 4.0 mph 67% 0.00 in 0 W/m2
18:58 62.9 °F 51.4 °F 30.02 in South 5.0 mph 6.0 mph 66% 0.00 in 0 W/m2
19:04 62.9 °F 51.0 °F 30.02 in SSW 4.0 mph 5.0 mph 65% 0.00 in 0 W/m2
19:10 62.8 °F 50.9 °F 30.02 in South 4.0 mph 6.0 mph 65% 0.00 in 0 W/m2
19:16 62.9 °F 51.0 °F 30.02 in South 4.0 mph 6.0 mph 65% 0.00 in 0 W/m2
19:22 63.0 °F 51.0 °F 30.02 in SSE 4.0 mph 5.0 mph 65% 0.00 in 0 W/m2
19:28 62.9 °F 51.0 °F 30.02 in South 4.0 mph 5.0 mph 65% 0.00 in 0 W/m2
19:34 63.0 °F 51.0 °F 30.02 in SSE 4.0 mph 5.0 mph 65% 0.00 in 0 W/m2
19:40 63.1 °F 51.1 °F 30.02 in SSW 4.0 mph 4.0 mph 65% 0.00 in 0 W/m2
19:46 63.0 °F 51.0 °F 30.01 in South 4.0 mph 4.0 mph 65% 0.00 in 0 W/m2
19:52 62.9 °F 51.0 °F 30.01 in SSE 4.0 mph 7.0 mph 65% 0.00 in 0 W/m2
19:58 63.0 °F 51.0 °F 30.01 in SSW 5.0 mph 7.0 mph 65% 0.00 in 0 W/m2
20:04 63.0 °F 51.0 °F 30.01 in SW 5.0 mph 5.0 mph 65% 0.00 in 0 W/m2
20:10 63.0 °F 51.0 °F 30.00 in South 4.0 mph 4.0 mph 65% 0.00 in 0 W/m2
20:16 62.9 °F 51.0 °F 30.00 in South 4.0 mph 7.0 mph 65% 0.00 in 0 W/m2
20:22 62.9 °F 51.0 °F 30.00 in SW 4.0 mph 4.0 mph 65% 0.00 in 0 W/m2
20:28 62.9 °F 51.0 °F 30.00 in South 4.0 mph 4.0 mph 65% 0.00 in 0 W/m2
20:34 63.0 °F 51.0 °F 30.00 in South 4.0 mph 6.0 mph 65% 0.00 in 0 W/m2
20:40 63.0 °F 51.0 °F 30.00 in SW 4.0 mph 7.0 mph 65% 0.00 in 0 W/m2
20:46 63.1 °F 51.1 °F 30.00 in SSW 4.0 mph 7.0 mph 65% 0.00 in 0 W/m2
20:52 63.1 °F 50.7 °F 29.99 in SSW 4.0 mph 5.0 mph 64% 0.00 in 0 W/m2
20:58 63.2 °F 50.8 °F 29.99 in SW 5.0 mph 6.0 mph 64% 0.00 in 0 W/m2
21:04 63.3 °F 50.9 °F 30.00 in SSW 5.0 mph 8.0 mph 64% 0.00 in 0 W/m2
21:10 63.3 °F 51.3 °F 29.99 in SSW 4.0 mph 6.0 mph 65% 0.00 in 0 W/m2
21:16 63.2 °F 51.2 °F 29.99 in SSW 4.0 mph 6.0 mph 65% 0.00 in 0 W/m2
21:22 63.3 °F 51.3 °F 29.99 in South 4.0 mph 4.0 mph 65% 0.00 in 0 W/m2
21:28 63.2 °F 51.2 °F 29.99 in SSW 3.0 mph 4.0 mph 65% 0.00 in 0 W/m2
21:34 63.5 °F 51.1 °F 29.99 in SSW 4.0 mph 5.0 mph 64% 0.00 in 0 W/m2
21:40 63.6 °F 51.6 °F 29.99 in SSW 4.0 mph 4.0 mph 65% 0.00 in 0 W/m2
21:46 63.8 °F 51.4 °F 29.99 in SW 4.0 mph 11.0 mph 64% 0.00 in 0 W/m2
21:52 63.9 °F 51.5 °F 29.99 in SSW 5.0 mph 5.0 mph 64% 0.00 in 0 W/m2
21:58 63.8 °F 51.0 °F 29.99 in SSW 4.0 mph 7.0 mph 63% 0.00 in 0 W/m2
22:04 63.9 °F 50.6 °F 29.99 in WSW 5.0 mph 5.0 mph 62% 0.00 in 0 W/m2
22:10 63.9 °F 50.6 °F 29.99 in SW 4.0 mph 5.0 mph 62% 0.00 in 0 W/m2
22:16 64.0 °F 50.3 °F 29.98 in South 5.0 mph 7.0 mph 61% 0.00 in 0 W/m2
22:22 64.2 °F 50.0 °F 29.98 in SW 5.0 mph 12.0 mph 60% 0.00 in 0 W/m2
22:28 64.4 °F 50.2 °F 29.98 in SSW 6.0 mph 12.0 mph 60% 0.00 in 0 W/m2
22:34 64.4 °F 50.2 °F 29.98 in SW 5.0 mph 7.0 mph 60% 0.00 in 0 W/m2
22:40 64.5 °F 50.3 °F 29.98 in SW 5.0 mph 7.0 mph 60% 0.00 in 0 W/m2
22:46 64.5 °F 49.8 °F 29.98 in SW 6.0 mph 7.0 mph 59% 0.00 in 0 W/m2
22:52 64.3 °F 49.7 °F 29.98 in SSW 6.0 mph 6.0 mph 59% 0.00 in 0 W/m2
22:58 64.3 °F 49.7 °F 29.97 in SE 6.0 mph 9.0 mph 59% 0.00 in 0 W/m2
23:04 64.4 °F 50.2 °F 29.97 in SW 6.0 mph 10.0 mph 60% 0.00 in 0 W/m2
23:16 64.3 °F 50.1 °F 29.97 in SW 4.0 mph 8.0 mph 60% 0.00 in 0 W/m2
23:22 64.4 °F 50.2 °F 29.97 in South 4.0 mph 7.0 mph 60% 0.00 in 0 W/m2
23:28 64.5 °F 50.3 °F 29.97 in SSW 4.0 mph 7.0 mph 60% 0.00 in 0 W/m2
23:32 64.5 °F 50.3 °F 29.97 in SSW 3.0 mph 7.0 mph 60% 0.00 in 0 W/m2
23:38 64.7 °F 50.0 °F 29.97 in SW 4.0 mph 7.0 mph 59% 0.00 in 0 W/m2
23:44 64.8 °F 50.1 °F 29.96 in WSW 5.0 mph 16.0 mph 59% 0.00 in 0 W/m2
23:50 64.9 °F 50.2 °F 29.95 in SSW 6.0 mph 6.0 mph 59% 0.00 in 0 W/m2
23:56 64.8 °F 50.1 °F 29.95 in SW 5.0 mph 6.0 mph 59% 0.00 in 0 W/m2
Country Meadow, Clay, NY, USA
Compliments of Weather Underground - 2 mb